createdAt,value
2023-02-11T00:00:41.140Z,103533.72
2023-02-11T00:03:09.122Z,103540.47
2023-02-11T00:05:36.032Z,103534.53
2023-02-11T00:08:02.601Z,103520.94
2023-02-11T00:10:31.385Z,103511.66
2023-02-11T00:12:58.180Z,103522.69
2023-02-11T00:15:24.831Z,103519.22
2023-02-11T00:17:51.853Z,103529.34
2023-02-11T00:20:18.412Z,103525.97
2023-02-11T00:22:45.692Z,103528.50
2023-02-11T00:25:12.273Z,103514.00
2023-02-11T00:27:38.827Z,103514.84
2023-02-11T00:30:06.031Z,103524.22
2023-02-11T00:32:32.774Z,103517.47
2023-02-11T00:34:59.395Z,103520.94
2023-02-11T00:37:25.879Z,103531.16
2023-02-11T00:39:52.452Z,103530.16
2023-02-11T00:42:21.366Z,103526.06
2023-02-11T00:44:49.263Z,103535.25
2023-02-11T00:47:15.741Z,103525.88
2023-02-11T00:49:42.272Z,103525.81
2023-02-11T00:52:09.064Z,103532.72
2023-02-11T00:54:37.443Z,103536.91
2023-02-11T00:57:04.383Z,103532.72
2023-02-11T00:59:33.265Z,103523.41
2023-02-11T01:02:02.195Z,103524.31
2023-02-11T01:04:29.016Z,103521.78
2023-02-11T01:06:55.564Z,103529.53
2023-02-11T01:09:23.467Z,103515.09
2023-02-11T01:11:50.294Z,103499.06
2023-02-11T01:14:17.333Z,103505.22
2023-02-11T01:16:46.616Z,103491.91
2023-02-11T01:19:13.815Z,103492.81
2023-02-11T01:21:42.834Z,103486.97
2023-02-11T01:24:09.433Z,103465.06
2023-02-11T01:26:39.255Z,103466.13
2023-02-11T01:29:07.424Z,103474.13
2023-02-11T01:31:34.052Z,103486.97
2023-02-11T01:34:03.261Z,103495.59
2023-02-11T01:36:32.487Z,103512.59
2023-02-11T01:38:59.306Z,103505.91
2023-02-11T01:41:25.956Z,103520.31
2023-02-11T01:43:52.813Z,103510.78
2023-02-11T01:46:37.693Z,103520.06
2023-02-11T01:49:10.056Z,103521.63
2023-02-11T01:51:42.515Z,103508.78
2023-02-11T01:54:30.100Z,103509.69
2023-02-11T01:57:18.848Z,103514.81
2023-02-11T02:00:21.903Z,103518.25
2023-02-11T02:02:54.317Z,103522.47
2023-02-11T02:05:43.267Z,103517.25
2023-02-11T02:08:32.354Z,103526.56
2023-02-11T02:11:01.279Z,103512.16
2023-02-11T02:13:32.912Z,103518.09
2023-02-11T02:16:03.909Z,103510.44
2023-02-11T02:18:42.726Z,103507.06
2023-02-11T02:21:39.875Z,103512.97
2023-02-11T02:24:31.079Z,103501.94
2023-02-11T02:27:13.205Z,103497.75
2023-02-11T02:29:52.050Z,103487.66
2023-02-11T02:32:36.943Z,103495.38
2023-02-11T02:35:10.795Z,103494.63
2023-02-11T02:38:06.829Z,103484.69
2023-02-11T02:40:52.953Z,103489.13
2023-02-11T02:43:21.842Z,103480.66
2023-02-11T02:45:49.139Z,103483.28
2023-02-11T02:48:42.746Z,103480.84
2023-02-11T02:51:25.376Z,103491.03
2023-02-11T02:54:08.973Z,103491.09
2023-02-11T02:56:51.896Z,103483.53
2023-02-11T02:59:33.774Z,103488.63
2023-02-11T03:02:50.358Z,103487.00
2023-02-11T03:05:22.844Z,103479.44
2023-02-11T03:07:58.255Z,103472.69
2023-02-11T03:10:47.111Z,103476.88
2023-02-11T03:13:19.645Z,103475.31
2023-02-11T03:15:52.511Z,103470.22
2023-02-11T03:18:24.641Z,103466.13
2023-02-11T03:20:54.680Z,103462.00
2023-02-11T03:23:37.523Z,103455.34
2023-02-11T03:26:48.325Z,103453.84
2023-02-11T03:29:31.040Z,103443.00
2023-02-11T03:32:17.709Z,103456.66
2023-02-11T03:34:47.695Z,103454.09
2023-02-11T03:37:27.753Z,103447.38
2023-02-11T03:40:25.035Z,103437.97
2023-02-11T03:42:57.594Z,103434.59
2023-02-11T03:45:26.829Z,103440.63
2023-02-11T03:48:04.306Z,103435.63
2023-02-11T03:50:37.489Z,103444.09
2023-02-11T03:53:06.050Z,103445.00
2023-02-11T03:55:36.968Z,103442.34
2023-02-11T03:58:06.832Z,103447.44
2023-02-11T04:00:37.060Z,103449.19
2023-02-11T04:03:04.869Z,103453.47
2023-02-11T04:05:34.055Z,103446.69
2023-02-11T04:08:01.123Z,103454.53
2023-02-11T04:10:30.284Z,103453.72
2023-02-11T04:12:57.443Z,103461.19
2023-02-11T04:15:24.912Z,103455.00
2023-02-11T04:17:53.811Z,103453.38
2023-02-11T04:20:20.417Z,103454.09
2023-02-11T04:22:52.029Z,103451.56
2023-02-11T04:25:18.908Z,103454.91
2023-02-11T04:27:45.401Z,103460.84
2023-02-11T04:30:15.676Z,103460.03
2023-02-11T04:32:42.569Z,103471.88
2023-02-11T04:35:12.185Z,103465.13
2023-02-11T04:37:38.982Z,103466.78
2023-02-11T04:40:06.126Z,103473.59
2023-02-11T04:42:34.941Z,103476.13
2023-02-11T04:45:02.197Z,103476.13
2023-02-11T04:47:31.330Z,103481.25
2023-02-11T04:50:00.591Z,103478.69
2023-02-11T04:52:27.493Z,103465.94
2023-02-11T04:54:54.361Z,103476.91
2023-02-11T04:57:23.510Z,103464.16
2023-02-11T04:59:52.657Z,103464.97
2023-02-11T05:02:19.525Z,103470.88
2023-02-11T05:04:46.477Z,103470.06
2023-02-11T05:07:13.043Z,103469.97
2023-02-11T05:09:41.968Z,103477.63
2023-02-11T05:12:11.105Z,103468.25
2023-02-11T05:14:40.490Z,103468.25
2023-02-11T05:17:07.214Z,103460.53
2023-02-11T05:19:34.114Z,103457.97
2023-02-11T05:22:03.482Z,103466.38
2023-02-11T05:24:34.767Z,103467.09
2023-02-11T05:27:02.037Z,103473.84
2023-02-11T05:29:28.618Z,103472.03
2023-02-11T05:31:55.167Z,103458.38
2023-02-11T05:34:22.022Z,103466.75
2023-02-11T05:36:48.846Z,103466.69
2023-02-11T05:39:15.486Z,103457.22
2023-02-11T05:41:46.292Z,103465.59
2023-02-11T05:44:13.191Z,103460.41
2023-02-11T05:46:42.816Z,103463.59
2023-02-11T05:49:09.293Z,103468.66
2023-02-11T05:51:35.839Z,103466.00
2023-02-11T05:54:04.654Z,103465.19
2023-02-11T05:56:31.473Z,103465.91
2023-02-11T05:59:00.513Z,103464.16
2023-02-11T06:01:27.339Z,103477.69
2023-02-11T06:03:54.314Z,103470.03
2023-02-11T06:06:21.351Z,103475.03
2023-02-11T06:08:49.752Z,103474.94
2023-02-11T06:11:16.501Z,103482.59
2023-02-11T06:13:47.537Z,103479.22
2023-02-11T06:16:14.730Z,103482.59
2023-02-11T06:18:41.624Z,103483.41
2023-02-11T06:21:10.336Z,103485.97
2023-02-11T06:23:37.498Z,103485.91
2023-02-11T06:26:06.332Z,103479.06
2023-02-11T06:28:36.389Z,103483.16
2023-02-11T06:31:07.248Z,103474.69
2023-02-11T06:33:37.688Z,103472.06
2023-02-11T06:36:13.739Z,103467.69
2023-02-11T06:38:41.819Z,103469.34
2023-02-11T06:41:16.919Z,103468.44
2023-02-11T06:43:44.531Z,103476.94
2023-02-11T06:46:11.575Z,103476.00
2023-02-11T06:48:39.286Z,103472.50
2023-02-11T06:51:13.699Z,103467.28
2023-02-11T06:53:43.818Z,103468.94
2023-02-11T06:56:13.952Z,103474.78
2023-02-11T06:58:40.917Z,103478.25
2023-02-11T07:01:09.475Z,103484.19
2023-02-11T07:03:40.670Z,103479.78
2023-02-11T07:06:09.084Z,103489.09
2023-02-11T07:08:36.265Z,103489.03
2023-02-11T07:11:19.540Z,103493.28
2023-02-11T07:13:51.292Z,103491.59
2023-02-11T07:16:19.802Z,103497.50
2023-02-11T07:18:47.886Z,103504.16
2023-02-11T07:21:19.883Z,103503.25
2023-02-11T07:23:49.472Z,103502.25
2023-02-11T07:26:20.048Z,103509.00
2023-02-11T07:28:49.469Z,103518.31
2023-02-11T07:31:26.024Z,103517.38
2023-02-11T07:33:54.752Z,103518.97
2023-02-11T07:36:22.265Z,103517.88
2023-02-11T07:38:49.242Z,103516.06
2023-02-11T07:41:18.966Z,103513.41
2023-02-11T07:43:46.388Z,103519.09
2023-02-11T07:46:22.212Z,103526.66
2023-02-11T07:48:48.858Z,103529.94
2023-02-11T07:51:16.806Z,103523.00
2023-02-11T07:53:44.472Z,103526.31
2023-02-11T07:56:14.909Z,103521.94
2023-02-11T07:58:44.979Z,103527.88
2023-02-11T08:01:25.472Z,103517.56
2023-02-11T08:03:52.775Z,103523.41
2023-02-11T08:06:21.217Z,103525.97
2023-02-11T08:08:48.155Z,103531.97
2023-02-11T08:11:24.379Z,103525.78
2023-02-11T08:13:53.970Z,103533.34
2023-02-11T08:16:29.858Z,103523.97
2023-02-11T08:18:59.096Z,103527.34
2023-02-11T08:21:26.555Z,103532.53
2023-02-11T08:23:55.201Z,103529.97
2023-02-11T08:26:28.794Z,103528.97
2023-02-11T08:28:57.099Z,103527.16
2023-02-11T08:31:27.048Z,103527.25
2023-02-11T08:33:55.011Z,103525.41
2023-02-11T08:36:26.806Z,103528.78
2023-02-11T08:39:16.100Z,103538.13
2023-02-11T08:41:45.160Z,103543.13
2023-02-11T08:44:11.946Z,103549.06
2023-02-11T08:46:38.737Z,103546.50
2023-02-11T08:49:05.657Z,103547.16
2023-02-11T08:51:33.319Z,103547.88
2023-02-11T08:54:00.724Z,103550.28
2023-02-11T08:56:28.226Z,103555.03
2023-02-11T08:58:55.247Z,103559.03
2023-02-11T09:01:29.021Z,103556.03
2023-02-11T09:03:56.749Z,103559.97
2023-02-11T09:06:27.145Z,103561.88
2023-02-11T09:08:56.786Z,103573.38
2023-02-11T09:11:34.261Z,103567.84
2023-02-11T09:14:01.848Z,103576.78
2023-02-11T09:16:33.030Z,103569.66
2023-02-11T09:19:02.061Z,103569.38
2023-02-11T09:21:29.467Z,103570.00
2023-02-11T09:23:59.076Z,103579.03
2023-02-11T09:26:32.796Z,103580.22
2023-02-11T09:29:00.829Z,103584.53
2023-02-11T09:31:29.761Z,103585.06
2023-02-11T09:34:02.582Z,103582.00
2023-02-11T09:36:34.823Z,103586.03
2023-02-11T09:39:02.536Z,103585.00
2023-02-11T09:41:35.631Z,103592.34
2023-02-11T09:44:06.636Z,103600.53
2023-02-11T09:46:36.986Z,103600.25
2023-02-11T09:49:05.008Z,103596.69
2023-02-11T09:51:40.654Z,103592.81
2023-02-11T09:54:31.970Z,103599.19
2023-02-11T09:56:58.806Z,103598.50
2023-02-11T09:59:27.899Z,103593.63
2023-02-11T10:02:00.269Z,103601.84
2023-02-11T10:04:38.268Z,103612.22
2023-02-11T10:07:17.305Z,103619.06
2023-02-11T10:10:25.681Z,103614.75
2023-02-11T10:12:55.151Z,103621.56
2023-02-11T10:15:33.481Z,103628.09
2023-02-11T10:18:00.519Z,103628.84
2023-02-11T10:21:08.829Z,103636.44
2023-02-11T10:23:40.270Z,103640.03
2023-02-11T10:26:17.747Z,103640.72
2023-02-11T10:28:47.970Z,103644.91
2023-02-11T10:31:18.907Z,103648.28
2023-02-11T10:34:12.391Z,103651.78
2023-02-11T10:36:43.946Z,103642.31
2023-02-11T10:39:19.267Z,103660.28
2023-02-11T10:41:50.729Z,103661.31
2023-02-11T10:44:24.864Z,103660.38
2023-02-11T10:46:52.524Z,103664.88
2023-02-11T10:49:36.661Z,103652.72
2023-02-11T10:52:14.197Z,103654.84
2023-02-11T10:54:41.170Z,103652.78
2023-02-11T10:57:22.344Z,103646.97
2023-02-11T10:59:49.492Z,103653.78
2023-02-11T11:02:35.952Z,103659.78
2023-02-11T11:05:31.617Z,103660.22
2023-02-11T11:08:10.077Z,103664.81
2023-02-11T11:10:44.101Z,103670.72
2023-02-11T11:13:32.241Z,103668.44
2023-02-11T11:16:13.922Z,103677.50
2023-02-11T11:18:43.871Z,103677.94
2023-02-11T11:21:35.761Z,103681.59
2023-02-11T11:24:03.912Z,103685.94
2023-02-11T11:26:48.665Z,103690.16
2023-02-11T11:29:23.949Z,103689.56
2023-02-11T11:31:57.907Z,103694.25
2023-02-11T11:34:29.246Z,103690.66
2023-02-11T11:36:58.404Z,103692.06
2023-02-11T11:39:31.429Z,103687.75
2023-02-11T11:41:59.593Z,103681.34
2023-02-11T11:44:33.478Z,103684.53
2023-02-11T11:47:12.409Z,103681.84
2023-02-11T11:50:09.095Z,103679.59
2023-02-11T11:52:53.893Z,103674.09
2023-02-11T11:55:42.976Z,103673.34
2023-02-11T11:58:26.221Z,103671.69
2023-02-11T12:01:10.788Z,103668.53
2023-02-11T12:04:14.396Z,103670.34
2023-02-11T12:07:00.723Z,103668.22
2023-02-11T12:09:38.452Z,103657.09
2023-02-11T12:12:14.271Z,103658.09
2023-02-11T12:14:49.810Z,103653.47
2023-02-11T12:17:57.411Z,103661.50
2023-02-11T12:20:36.043Z,103663.75
2023-02-11T12:23:11.653Z,103666.13
2023-02-11T12:25:45.333Z,103647.66
2023-02-11T12:28:34.003Z,103656.06
2023-02-11T12:31:35.445Z,103650.22
2023-02-11T12:34:12.440Z,103650.94
2023-02-11T12:36:47.440Z,103655.00
2023-02-11T12:39:37.445Z,103662.31
2023-02-11T12:42:47.151Z,103663.63
2023-02-11T12:45:26.400Z,103658.84
2023-02-11T12:48:37.078Z,103663.50
2023-02-11T12:51:28.258Z,103661.41
2023-02-11T12:54:09.982Z,103658.97
2023-02-11T12:57:02.465Z,103653.94
2023-02-11T12:59:40.553Z,103647.38
2023-02-11T13:02:22.966Z,103644.06
2023-02-11T13:04:54.507Z,103652.06
2023-02-11T13:07:32.723Z,103648.19
2023-02-11T13:10:15.642Z,103651.91
2023-02-11T13:13:07.007Z,103662.34
2023-02-11T13:15:33.628Z,103662.31
2023-02-11T13:18:27.402Z,103657.41
2023-02-11T13:21:15.578Z,103651.56
2023-02-11T13:24:17.833Z,103654.63
2023-02-11T13:26:47.448Z,103645.75
2023-02-11T13:29:25.889Z,103647.25
2023-02-11T13:32:18.188Z,103631.34
2023-02-11T13:34:44.649Z,103640.00
2023-02-11T13:37:28.120Z,103646.09
2023-02-11T13:40:01.037Z,103639.88
2023-02-11T13:42:30.521Z,103640.34
2023-02-11T13:44:58.265Z,103633.34
2023-02-11T13:47:38.031Z,103641.88
2023-02-11T13:50:07.737Z,103643.72
2023-02-11T13:52:40.004Z,103639.81
2023-02-11T13:55:21.093Z,103633.97
2023-02-11T13:58:11.135Z,103640.22
2023-02-11T14:00:37.556Z,103647.72
2023-02-11T14:03:32.321Z,103650.78
2023-02-11T14:06:34.397Z,103645.75
2023-02-11T14:09:09.972Z,103655.78
2023-02-11T14:11:51.822Z,103654.59
2023-02-11T14:14:25.691Z,103645.00
2023-02-11T14:16:58.154Z,103651.41
2023-02-11T14:19:45.677Z,103648.34
2023-02-11T14:22:21.743Z,103649.88
2023-02-11T14:24:50.997Z,103644.72
2023-02-11T14:27:32.624Z,103650.47
2023-02-11T14:30:20.909Z,103661.50
2023-02-11T14:33:08.595Z,103661.38
2023-02-11T14:35:40.482Z,103652.13
2023-02-11T14:38:18.927Z,103659.97
2023-02-11T14:41:18.671Z,103659.41
2023-02-11T14:43:49.694Z,103666.66
2023-02-11T14:46:19.135Z,103658.00
2023-02-11T14:48:49.026Z,103659.38
2023-02-11T14:51:28.136Z,103664.28
2023-02-11T14:54:00.962Z,103656.56
2023-02-11T14:56:34.732Z,103660.06
2023-02-11T14:59:02.813Z,103663.66
2023-02-11T15:01:34.334Z,103662.69
2023-02-11T15:04:03.640Z,103666.66
2023-02-11T15:06:37.723Z,103672.84
2023-02-11T15:09:16.423Z,103666.13
2023-02-11T15:11:46.091Z,103669.84
2023-02-11T15:14:35.968Z,103663.50
2023-02-11T15:17:05.988Z,103667.44
2023-02-11T15:19:41.024Z,103680.59
2023-02-11T15:22:18.815Z,103680.00
2023-02-11T15:24:45.967Z,103681.25
2023-02-11T15:27:18.864Z,103683.00
2023-02-11T15:29:51.166Z,103684.75
2023-02-11T15:32:25.825Z,103684.75
2023-02-11T15:34:54.382Z,103687.50
2023-02-11T15:37:29.097Z,103689.28
2023-02-11T15:40:11.565Z,103693.81
2023-02-11T15:42:52.066Z,103688.69
2023-02-11T15:45:29.024Z,103685.03
2023-02-11T15:48:18.003Z,103688.53
2023-02-11T15:50:55.750Z,103694.09
2023-02-11T15:53:28.755Z,103695.34
2023-02-11T15:56:08.288Z,103698.53
2023-02-11T15:58:43.766Z,103692.28
2023-02-11T16:01:11.387Z,103700.28
2023-02-11T16:03:38.644Z,103703.03
2023-02-11T16:06:29.493Z,103699.25
2023-02-11T16:09:01.695Z,103700.47
2023-02-11T16:11:34.502Z,103692.38
2023-02-11T16:14:04.567Z,103701.28
2023-02-11T16:16:34.755Z,103700.13
2023-02-11T16:19:06.220Z,103703.22
2023-02-11T16:21:45.273Z,103704.22
2023-02-11T16:24:27.986Z,103701.94
2023-02-11T16:26:57.997Z,103718.19
2023-02-11T16:29:27.456Z,103720.09
2023-02-11T16:32:05.237Z,103719.28
2023-02-11T16:34:31.872Z,103714.34
2023-02-11T16:37:04.354Z,103718.13
2023-02-11T16:39:31.100Z,103714.97
2023-02-11T16:41:58.492Z,103715.97
2023-02-11T16:44:26.496Z,103723.13
2023-02-11T16:46:54.899Z,103731.84
2023-02-11T16:49:32.617Z,103731.09
2023-02-11T16:52:03.865Z,103731.91
2023-02-11T16:54:32.018Z,103731.09
2023-02-11T16:57:09.120Z,103732.94
2023-02-11T16:59:35.625Z,103746.69
2023-02-11T17:02:04.988Z,103750.97
2023-02-11T17:04:33.718Z,103756.94
2023-02-11T17:07:00.365Z,103758.56
2023-02-11T17:09:31.437Z,103755.09
2023-02-11T17:11:58.076Z,103755.19
2023-02-11T17:14:27.421Z,103762.06
2023-02-11T17:16:57.906Z,103758.03
2023-02-11T17:19:26.814Z,103757.38
2023-02-11T17:21:53.357Z,103757.47
2023-02-11T17:24:21.942Z,103772.19
2023-02-11T17:26:49.736Z,103763.88
2023-02-11T17:29:23.091Z,103772.50
2023-02-11T17:31:52.730Z,103771.13
2023-02-11T17:34:23.607Z,103772.94
2023-02-11T17:36:52.155Z,103769.78
2023-02-11T17:39:21.179Z,103770.66
2023-02-11T17:41:49.322Z,103782.75
2023-02-11T17:44:16.521Z,103788.69
2023-02-11T17:46:43.754Z,103784.59
2023-02-11T17:49:11.971Z,103784.66
2023-02-11T17:51:39.285Z,103786.50
2023-02-11T17:54:17.635Z,103782.31
2023-02-11T17:56:45.134Z,103785.03
2023-02-11T17:59:14.114Z,103784.50
2023-02-11T18:01:42.236Z,103789.06
2023-02-11T18:04:13.200Z,103791.72
2023-02-11T18:06:39.832Z,103797.88
2023-02-11T18:09:10.475Z,103797.13
2023-02-11T18:11:39.994Z,103801.41
2023-02-11T18:14:08.553Z,103803.25
2023-02-11T18:16:39.462Z,103806.72
2023-02-11T18:19:08.291Z,103807.63
2023-02-11T18:21:35.058Z,103802.59
2023-02-11T18:24:06.960Z,103810.38
2023-02-11T18:26:39.132Z,103810.38
2023-02-11T18:29:07.013Z,103807.06
2023-02-11T18:31:35.720Z,103812.28
2023-02-11T18:34:07.777Z,103812.28
2023-02-11T18:36:35.412Z,103809.81
2023-02-11T18:39:06.268Z,103809.94
2023-02-11T18:41:33.508Z,103817.59
2023-02-11T18:44:03.035Z,103824.44
2023-02-11T18:46:32.816Z,103827.84
2023-02-11T18:48:59.782Z,103827.84
2023-02-11T18:51:27.034Z,103825.28
2023-02-11T18:53:53.610Z,103827.84
2023-02-11T18:56:23.412Z,103824.44
2023-02-11T18:58:52.566Z,103823.63
2023-02-11T19:01:24.721Z,103825.44
2023-02-11T19:03:51.979Z,103830.56
2023-02-11T19:06:30.399Z,103834.16
2023-02-11T19:09:02.736Z,103838.34
2023-02-11T19:11:50.582Z,103835.69
2023-02-11T19:14:23.410Z,103839.88
2023-02-11T19:16:53.104Z,103842.44
2023-02-11T19:19:25.826Z,103847.56
2023-02-11T19:21:52.587Z,103847.56
2023-02-11T19:24:23.591Z,103847.47
2023-02-11T19:26:52.115Z,103851.69
2023-02-11T19:29:19.242Z,103856.81
2023-02-11T19:31:46.087Z,103856.00
2023-02-11T19:34:15.007Z,103857.72
2023-02-11T19:36:42.053Z,103867.94
2023-02-11T19:39:09.160Z,103861.19
2023-02-11T19:41:38.804Z,103864.56
2023-02-11T19:44:06.921Z,103862.09
2023-02-11T19:46:40.886Z,103867.13
2023-02-11T19:49:10.645Z,103875.63
2023-02-11T19:51:39.700Z,103868.81
2023-02-11T19:54:07.739Z,103869.63
2023-02-11T19:56:34.724Z,103870.44
2023-02-11T19:59:04.415Z,103881.50
2023-02-11T20:01:31.022Z,103879.75
2023-02-11T20:04:00.049Z,103881.41
2023-02-11T20:06:29.652Z,103891.66
2023-02-11T20:09:01.580Z,103885.72
2023-02-11T20:11:30.571Z,103899.31
2023-02-11T20:13:58.188Z,103892.47
2023-02-11T20:16:46.950Z,103890.81
2023-02-11T20:19:21.509Z,103890.09
2023-02-11T20:21:51.471Z,103893.75
2023-02-11T20:24:19.444Z,103901.50
2023-02-11T20:26:48.787Z,103901.56
2023-02-11T20:29:20.515Z,103904.91
2023-02-11T20:31:51.715Z,103901.56
2023-02-11T20:34:18.996Z,103904.91
2023-02-11T20:36:52.341Z,103908.28
2023-02-11T20:39:22.314Z,103917.59
2023-02-11T20:41:49.939Z,103927.19
2023-02-11T20:44:16.794Z,103911.91
2023-02-11T20:46:47.029Z,103913.75
2023-02-11T20:49:16.524Z,103918.09
2023-02-11T20:51:43.715Z,103916.56
2023-02-11T20:54:15.003Z,103918.22
2023-02-11T20:56:42.332Z,103928.34
2023-02-11T20:59:15.328Z,103924.06
2023-02-11T21:01:44.549Z,103928.34
2023-02-11T21:04:14.677Z,103923.31
2023-02-11T21:06:45.406Z,103939.50
2023-02-11T21:09:19.661Z,103932.84
2023-02-11T21:11:47.383Z,103943.97
2023-02-11T21:14:16.497Z,103945.63
2023-02-11T21:16:43.276Z,103949.84
2023-02-11T21:19:10.078Z,103947.28
2023-02-11T21:21:38.185Z,103947.28
2023-02-11T21:24:08.904Z,103952.56
2023-02-11T21:26:36.210Z,103954.28
2023-02-11T21:29:04.302Z,103955.09
2023-02-11T21:31:32.875Z,103954.19
2023-02-11T21:33:59.961Z,103956.75
2023-02-11T21:36:28.281Z,103958.50
2023-02-11T21:38:55.025Z,103966.16
2023-02-11T21:41:22.652Z,103967.00
2023-02-11T21:43:50.967Z,103961.88
2023-02-11T21:46:18.816Z,103967.19
2023-02-11T21:48:48.182Z,103967.09
2023-02-11T21:51:20.500Z,103967.19
2023-02-11T21:53:47.839Z,103961.16
2023-02-11T21:56:17.815Z,103965.44
2023-02-11T21:58:45.471Z,103964.63
2023-02-11T22:01:16.323Z,103973.28
2023-02-11T22:03:43.539Z,103969.81
2023-02-11T22:06:12.848Z,103974.94
2023-02-11T22:08:42.467Z,103978.38
2023-02-11T22:11:11.518Z,103984.34
2023-02-11T22:13:38.715Z,103985.25
2023-02-11T22:16:08.573Z,103988.72
2023-02-11T22:18:37.115Z,103991.28
2023-02-11T22:21:09.464Z,103983.69
2023-02-11T22:23:37.478Z,103987.06
2023-02-11T22:26:09.586Z,103982.88
2023-02-11T22:28:39.167Z,103993.09
2023-02-11T22:31:06.590Z,103988.00
2023-02-11T22:33:37.526Z,103993.16
2023-02-11T22:36:07.932Z,103988.91
2023-02-11T22:38:37.638Z,103990.56
2023-02-11T22:41:12.792Z,103987.22
2023-02-11T22:43:39.364Z,103991.47
2023-02-11T22:46:07.745Z,103993.25
2023-02-11T22:48:36.185Z,103995.00
2023-02-11T22:51:14.625Z,103993.34
2023-02-11T22:53:46.539Z,103996.00
2023-02-11T22:56:15.847Z,103998.56
2023-02-11T22:58:43.594Z,104002.75
2023-02-11T23:01:13.118Z,104004.50
2023-02-11T23:03:40.174Z,103996.00
2023-02-11T23:06:07.376Z,103997.75
2023-02-11T23:08:40.502Z,104001.13
2023-02-11T23:11:09.802Z,103996.88
2023-02-11T23:13:38.806Z,103998.56
2023-02-11T23:16:07.650Z,103996.06
2023-02-11T23:18:36.192Z,103993.59
2023-02-11T23:21:16.599Z,103993.59
2023-02-11T23:23:44.258Z,103992.91
2023-02-11T23:26:17.428Z,104004.97
2023-02-11T23:28:47.308Z,103990.63
2023-02-11T23:31:27.020Z,103994.91
2023-02-11T23:33:56.543Z,103993.19
2023-02-11T23:36:23.972Z,103996.59
2023-02-11T23:38:54.796Z,103992.28
2023-02-11T23:41:22.445Z,104001.69
2023-02-11T23:43:54.152Z,104011.09
2023-02-11T23:46:24.854Z,104002.53
2023-02-11T23:48:52.241Z,104007.53
2023-02-11T23:51:20.786Z,104008.47
2023-02-11T23:53:50.197Z,104002.56
2023-02-11T23:56:20.821Z,104005.13
2023-02-11T23:58:49.411Z,103991.53
